Time;durP1;ratioP1;P1;durP2;ratioP2;P2;SDS_P1;SDS_P2;PMS_P1;PMS_P2;Temp;Humidity;BMP_temperature;BMP_pressure;BME280_temperature;BME280_humidity;BME280_pressure;Samples;Min_cycle;Max_cycle;Signal;HPM_P1;HPM_P2
2022/07/26 00:01:04;;;;;;;1.73;1.30;;;20.80;99.90;;;;;;5031932;28;20963;-34
2022/07/26 00:03:30;;;;;;;2.30;1.40;;;20.80;99.90;;;;;;5030667;28;20198;-34
2022/07/26 00:05:56;;;;;;;3.23;1.37;;;20.70;99.90;;;;;;5032186;28;20499;-34
2022/07/26 00:08:22;;;;;;;2.70;1.27;;;20.70;99.90;;;;;;5040309;28;20459;-34
2022/07/26 00:10:49;;;;;;;2.47;1.70;;;20.70;99.90;;;;;;5039309;28;20516;-34
2022/07/26 00:13:16;;;;;;;3.00;1.43;;;20.60;99.90;;;;;;5051873;28;20192;-34
2022/07/26 00:15:43;;;;;;;1.80;1.00;;;20.60;99.90;;;;;;5052064;28;20871;-33
2022/07/26 00:18:09;;;;;;;3.27;1.70;;;20.60;99.90;;;;;;5050933;28;20420;-34
2022/07/26 00:20:35;;;;;;;3.50;1.77;;;20.50;99.90;;;;;;5054512;28;20919;-34
2022/07/26 00:23:01;;;;;;;1.70;1.40;;;20.50;99.90;;;;;;5044108;28;20432;-34
2022/07/26 00:25:27;;;;;;;2.40;1.27;;;20.50;99.90;;;;;;5031932;28;20202;-34
2022/07/26 00:27:53;;;;;;;2.07;1.70;;;20.50;99.90;;;;;;5031071;28;20464;-34
2022/07/26 00:30:18;;;;;;;2.00;1.70;;;20.50;99.90;;;;;;5030488;28;20449;-34
2022/07/26 00:32:44;;;;;;;3.10;1.40;;;20.60;99.90;;;;;;5031577;28;20202;-34
2022/07/26 00:35:10;;;;;;;1.80;1.37;;;20.60;99.90;;;;;;5031560;28;20202;-34
2022/07/26 00:37:37;;;;;;;2.70;1.70;;;20.60;99.90;;;;;;5030688;28;20241;-34
2022/07/26 00:40:04;;;;;;;2.23;1.40;;;20.50;99.90;;;;;;5031666;28;20953;-34
2022/07/26 00:42:30;;;;;;;3.07;1.90;;;20.50;99.90;;;;;;5031478;28;21100;-34
2022/07/26 00:44:55;;;;;;;2.17;1.67;;;20.50;99.90;;;;;;5031450;28;20425;-34
2022/07/26 00:47:21;;;;;;;3.20;1.70;;;20.40;99.90;;;;;;5030206;28;20429;-34
2022/07/26 00:49:47;;;;;;;4.80;1.50;;;20.40;99.90;;;;;;5031407;28;20187;-34
2022/07/26 00:52:13;;;;;;;2.93;1.80;;;20.30;99.90;;;;;;5031416;28;20187;-34
2022/07/26 00:54:42;;;;;;;3.17;1.80;;;20.30;99.90;;;;;;5031316;28;20596;-34
2022/07/26 00:57:08;;;;;;;3.50;1.77;;;20.20;99.90;;;;;;5030502;28;20917;-34
2022/07/26 00:59:34;;;;;;;3.90;2.30;;;20.20;99.90;;;;;;5031291;28;20453;-34
2022/07/26 01:02:01;;;;;;;2.77;2.23;;;20.10;99.90;;;;;;5030804;28;20829;-34
2022/07/26 01:04:27;;;;;;;3.10;1.90;;;20.10;99.90;;;;;;5031157;28;20432;-34
2022/07/26 01:06:53;;;;;;;4.70;1.97;;;20.00;99.90;;;;;;5030143;28;20516;-34
2022/07/26 01:09:19;;;;;;;5.00;1.90;;;20.00;99.90;;;;;;5040217;28;21050;-34
2022/07/26 01:11:45;;;;;;;5.07;1.80;;;20.00;99.90;;;;;;5045907;28;20507;-34
2022/07/26 01:14:10;;;;;;;3.40;1.97;;;20.00;99.90;;;;;;5050896;28;20178;-34
2022/07/26 01:16:36;;;;;;;5.27;1.87;;;20.00;99.90;;;;;;5049781;28;20196;-33
2022/07/26 01:19:02;;;;;;;2.83;1.83;;;20.00;99.90;;;;;;5049902;28;20262;-33
2022/07/26 01:21:32;;;;;;;3.50;1.93;;;19.90;99.90;;;;;;5057195;28;20189;-34
2022/07/26 01:23:58;;;;;;;5.67;2.23;;;19.90;99.90;;;;;;5030813;28;20281;-33
2022/07/26 01:26:24;;;;;;;4.80;2.33;;;19.80;99.90;;;;;;5030511;28;20429;-34
2022/07/26 01:28:50;;;;;;;4.20;2.00;;;19.80;99.90;;;;;;5029964;28;20504;-33
2022/07/26 01:31:16;;;;;;;4.43;2.10;;;19.80;99.90;;;;;;5030477;28;20220;-33
2022/07/26 01:33:42;;;;;;;2.30;1.70;;;19.80;99.90;;;;;;5030623;28;20425;-34
2022/07/26 01:36:08;;;;;;;3.20;1.83;;;19.70;99.90;;;;;;5030606;28;20504;-33
2022/07/26 01:38:34;;;;;;;5.80;2.10;;;19.70;99.90;;;;;;5029687;28;20995;-34
2022/07/26 01:41:00;;;;;;;3.40;1.90;;;19.60;99.90;;;;;;5030451;28;20432;-34
2022/07/26 01:43:25;;;;;;;3.67;1.80;;;19.60;99.90;;;;;;5030239;28;20447;-34
2022/07/26 01:45:51;;;;;;;3.60;1.90;;;19.60;99.90;;;;;;5030198;28;20182;-34
2022/07/26 01:48:17;;;;;;;2.70;1.77;;;19.60;99.90;;;;;;5029442;28;20334;-34
2022/07/26 01:50:43;;;;;;;5.43;3.10;;;19.60;99.90;;;;;;5030085;28;20657;-34
2022/07/26 01:53:09;;;;;;;2.90;1.80;;;19.60;99.90;;;;;;5030248;28;20421;-34
2022/07/26 01:55:35;;;;;;;2.33;1.60;;;19.70;99.90;;;;;;5030203;28;20515;-34
2022/07/26 01:58:02;;;;;;;6.60;2.30;;;19.70;99.90;;;;;;5029170;28;20186;-33
2022/07/26 02:00:27;;;;;;;3.10;2.17;;;19.70;99.90;;;;;;5029912;28;20417;-34
2022/07/26 02:02:53;;;;;;;4.07;1.90;;;19.50;99.90;;;;;;5030099;28;20424;-33
2022/07/26 02:05:19;;;;;;;6.77;2.40;;;19.50;99.90;;;;;;5028571;28;20224;-34
2022/07/26 02:07:45;;;;;;;4.77;2.40;;;19.50;99.90;;;;;;5034236;28;20205;-34
2022/07/26 02:10:12;;;;;;;6.13;2.70;;;19.50;99.90;;;;;;5036524;28;20592;-34
2022/07/26 02:12:37;;;;;;;2.90;1.93;;;19.60;99.90;;;;;;5049896;28;20193;-34
2022/07/26 02:15:05;;;;;;;2.17;1.90;;;19.60;99.90;;;;;;5049635;28;20439;-34
2022/07/26 02:17:30;;;;;;;3.43;2.20;;;19.60;99.90;;;;;;5049416;28;20185;-34
2022/07/26 02:19:56;;;;;;;4.57;2.90;;;19.70;99.90;;;;;;5048774;28;20435;-33
2022/07/26 02:22:22;;;;;;;5.90;2.63;;;19.60;99.90;;;;;;5051081;28;20187;-34
2022/07/26 02:24:49;;;;;;;8.80;2.50;;;19.70;99.90;;;;;;5029893;28;20185;-34
2022/07/26 02:27:14;;;;;;;2.30;1.83;;;19.70;99.90;;;;;;5029106;28;20478;-33
2022/07/26 02:29:40;;;;;;;6.83;2.50;;;19.60;99.90;;;;;;5029584;28;20460;-34
2022/07/26 02:32:06;;;;;;;3.67;2.20;;;19.50;99.90;;;;;;5029717;28;20738;-33
2022/07/26 02:34:32;;;;;;;3.60;1.73;;;19.50;99.90;;;;;;5029760;28;20425;-34
2022/07/26 02:36:58;;;;;;;3.37;1.90;;;19.40;99.90;;;;;;5029008;28;20855;-34
2022/07/26 02:39:27;;;;;;;3.13;1.70;;;19.40;99.90;;;;;;5029713;28;20657;-34
2022/07/26 02:41:57;;;;;;;3.77;2.07;;;19.50;99.90;;;;;;5029466;28;20429;-34
2022/07/26 02:44:24;;;;;;;3.47;2.03;;;19.40;99.90;;;;;;5029468;28;20484;-34
2022/07/26 02:46:51;;;;;;;5.17;1.80;;;19.40;99.90;;;;;;5028837;28;20997;-34
2022/07/26 02:49:17;;;;;;;4.90;1.93;;;19.40;99.90;;;;;;5029793;28;20496;-34
2022/07/26 02:51:43;;;;;;;4.20;1.90;;;19.40;99.90;;;;;;5029612;28;20421;-34
2022/07/26 02:54:09;;;;;;;4.33;1.87;;;19.50;99.90;;;;;;5029626;28;20419;-34
2022/07/26 02:56:35;;;;;;;5.87;1.90;;;19.50;99.90;;;;;;5028807;28;20213;-34
2022/07/26 02:59:00;;;;;;;7.13;2.37;;;19.50;99.90;;;;;;5029387;28;20174;-34
2022/07/26 03:01:26;;;;;;;3.30;1.80;;;19.40;99.90;;;;;;5029408;28;20264;-34
2022/07/26 03:03:52;;;;;;;3.03;1.40;;;19.40;99.90;;;;;;5029285;28;20248;-34
2022/07/26 03:06:18;;;;;;;4.17;1.70;;;19.50;99.90;;;;;;5029486;28;20217;-34
2022/07/26 03:08:44;;;;;;;6.20;2.90;;;19.40;99.90;;;;;;5037979;28;20230;-34
2022/07/26 03:11:10;;;;;;;4.03;2.23;;;19.50;99.90;;;;;;5042742;28;20440;-33
2022/07/26 03:13:35;;;;;;;5.20;2.37;;;19.50;99.90;;;;;;5052856;28;20184;-33
2022/07/26 03:16:01;;;;;;;5.13;2.13;;;19.50;99.90;;;;;;5053221;28;20273;-34
2022/07/26 03:18:27;;;;;;;5.57;2.77;;;19.60;99.90;;;;;;5050842;28;20294;-34
2022/07/26 03:20:53;;;;;;;6.00;2.50;;;19.40;99.90;;;;;;5059126;28;20239;-34
2022/07/26 03:23:18;;;;;;;5.93;1.90;;;19.40;99.90;;;;;;5040393;28;20293;-34
2022/07/26 03:25:44;;;;;;;5.27;2.00;;;19.30;99.90;;;;;;5032662;28;20233;-34
2022/07/26 03:28:10;;;;;;;5.00;1.90;;;19.30;99.90;;;;;;5032077;28;20236;-34
2022/07/26 03:30:36;;;;;;;4.10;2.00;;;19.20;99.90;;;;;;5032959;28;20197;-34
2022/07/26 03:33:01;;;;;;;5.77;2.23;;;19.20;99.90;;;;;;5032739;28;20201;-34
2022/07/26 03:35:27;;;;;;;2.57;1.60;;;19.10;99.90;;;;;;5032657;28;20240;-34
2022/07/26 03:37:53;;;;;;;3.77;2.20;;;19.10;99.90;;;;;;5032090;28;20221;-34
2022/07/26 03:40:19;;;;;;;3.63;2.17;;;19.10;99.90;;;;;;5032414;28;20662;-34
2022/07/26 03:42:46;;;;;;;3.53;1.73;;;19.10;99.90;;;;;;5032578;28;20183;-34
2022/07/26 03:45:12;;;;;;;4.53;2.23;;;19.10;99.90;;;;;;5032640;28;20966;-34
2022/07/26 03:47:38;;;;;;;6.40;2.67;;;19.10;99.90;;;;;;5031915;28;20781;-34
2022/07/26 03:50:05;;;;;;;4.20;2.23;;;19.10;99.90;;;;;;5032615;28;20432;-34
2022/07/26 03:52:32;;;;;;;6.27;2.33;;;19.10;99.90;;;;;;5032228;28;20237;-34
2022/07/26 03:54:58;;;;;;;3.70;2.60;;;19.10;99.90;;;;;;5032290;28;20436;-34
2022/07/26 03:57:24;;;;;;;4.70;2.50;;;19.00;99.90;;;;;;5031535;28;20433;-34
2022/07/26 03:59:49;;;;;;;4.43;2.50;;;19.00;99.90;;;;;;5032502;28;20421;-34
2022/07/26 04:02:15;;;;;;;4.70;3.20;;;18.90;99.90;;;;;;5032146;28;20225;-34
2022/07/26 04:04:41;;;;;;;5.20;2.70;;;18.90;99.90;;;;;;5032227;28;20190;-34
2022/07/26 04:07:07;;;;;;;11.13;3.03;;;18.80;99.90;;;;;;5031553;28;20859;-34
2022/07/26 04:09:32;;;;;;;8.77;3.07;;;18.80;99.90;;;;;;5041165;28;20296;-34
2022/07/26 04:11:58;;;;;;;5.80;3.17;;;18.80;99.90;;;;;;5048760;28;20242;-34
2022/07/26 04:14:24;;;;;;;4.67;2.40;;;18.70;99.90;;;;;;5052017;28;20239;-34
2022/07/26 04:16:49;;;;;;;7.30;2.60;;;18.80;99.90;;;;;;5049820;28;20213;-34
2022/07/26 04:19:15;;;;;;;5.77;2.33;;;18.90;99.90;;;;;;5050536;28;20204;-34
2022/07/26 04:21:41;;;;;;;6.00;2.80;;;18.90;99.90;;;;;;5057791;28;20190;-34
2022/07/26 04:24:07;;;;;;;5.60;3.50;;;18.90;99.90;;;;;;5031674;28;20221;-34
2022/07/26 04:26:33;;;;;;;6.13;2.93;;;19.00;99.90;;;;;;5031297;28;20189;-33
2022/07/26 04:28:58;;;;;;;6.33;3.17;;;18.90;99.90;;;;;;5031458;28;20461;-34
2022/07/26 04:31:24;;;;;;;6.47;2.87;;;18.90;99.90;;;;;;5031696;28;20244;-34
2022/07/26 04:33:51;;;;;;;4.70;2.50;;;18.90;99.90;;;;;;5031544;28;20210;-34
2022/07/26 04:36:17;;;;;;;5.83;2.60;;;18.80;99.90;;;;;;5031651;28;20561;-34
2022/07/26 04:38:43;;;;;;;3.87;2.50;;;18.70;99.90;;;;;;5030782;28;20474;-34
2022/07/26 04:41:09;;;;;;;6.97;3.20;;;18.80;99.90;;;;;;5031524;28;21097;-34
2022/07/26 04:43:35;;;;;;;4.53;2.30;;;18.70;99.90;;;;;;5031351;28;20428;-34
2022/07/26 04:46:01;;;;;;;9.30;2.67;;;18.70;99.90;;;;;;5031428;28;20409;-34
2022/07/26 04:48:27;;;;;;;5.80;3.20;;;18.70;99.90;;;;;;5030789;28;20522;-34
2022/07/26 04:50:52;;;;;;;5.17;2.67;;;18.60;99.90;;;;;;5031268;28;20217;-34
2022/07/26 04:53:18;;;;;;;6.80;2.50;;;18.60;99.90;;;;;;5041032;28;20651;-34
2022/07/26 04:55:44;;;;;;;6.50;2.70;;;18.60;99.90;;;;;;5048770;28;20261;-34
2022/07/26 04:58:10;;;;;;;3.90;2.20;;;18.50;99.90;;;;;;5036826;28;20917;-34
2022/07/26 05:00:36;;;;;;;4.27;2.63;;;18.50;99.90;;;;;;5031048;28;20264;-34
2022/07/26 05:03:03;;;;;;;6.80;2.53;;;18.50;99.90;;;;;;5031108;28;20816;-34
2022/07/26 05:05:31;;;;;;;4.50;2.20;;;18.50;99.90;;;;;;5039914;28;20471;-34
2022/07/26 05:07:59;;;;;;;3.50;2.67;;;18.50;99.90;;;;;;5047092;28;20487;-34
2022/07/26 05:10:36;;;;;;;4.30;2.60;;;18.50;99.90;;;;;;5032292;28;20413;-34
2022/07/26 05:13:04;;;;;;;5.10;2.80;;;18.40;99.90;;;;;;5030966;28;20879;-34
2022/07/26 05:15:31;;;;;;;5.40;3.00;;;18.50;99.90;;;;;;5032206;28;20558;-34
2022/07/26 05:18:04;;;;;;;4.40;2.17;;;18.50;99.90;;;;;;5041191;28;20423;-34
2022/07/26 05:20:30;;;;;;;4.17;2.43;;;18.50;99.90;;;;;;5034983;28;20945;-34
2022/07/26 05:22:56;;;;;;;5.03;2.90;;;18.50;99.90;;;;;;5043202;28;20413;-34
2022/07/26 05:25:22;;;;;;;4.83;3.00;;;18.50;99.90;;;;;;5030789;28;20417;-34
2022/07/26 05:27:48;;;;;;;3.80;2.87;;;18.50;99.90;;;;;;5029906;28;20555;-34
2022/07/26 05:30:14;;;;;;;6.70;3.17;;;18.50;99.90;;;;;;5030744;28;20194;-34
2022/07/26 05:32:40;;;;;;;6.03;2.93;;;18.40;99.90;;;;;;5045069;28;20255;-33
2022/07/26 05:35:07;;;;;;;6.10;2.87;;;18.40;99.90;;;;;;5037479;28;20831;-33
2022/07/26 05:37:33;;;;;;;5.37;2.43;;;18.40;99.90;;;;;;5029604;28;20255;-33
2022/07/26 05:39:59;;;;;;;5.10;3.30;;;18.40;99.90;;;;;;5036112;28;20448;-33
2022/07/26 05:42:25;;;;;;;6.37;3.33;;;18.40;99.90;;;;;;5044703;28;20949;-34
2022/07/26 05:44:51;;;;;;;6.33;3.20;;;18.40;99.90;;;;;;5040153;28;20188;-34
2022/07/26 05:47:17;;;;;;;5.83;2.63;;;18.50;99.90;;;;;;5040386;28;20940;-33
2022/07/26 05:49:43;;;;;;;6.00;2.90;;;18.50;99.90;;;;;;5038998;28;20205;-38
2022/07/26 05:52:08;;;;;;;3.43;2.87;;;18.50;99.90;;;;;;5043117;28;20428;-34
2022/07/26 05:54:35;;;;;;;4.00;2.90;;;18.50;99.90;;;;;;5040623;28;20575;-33
2022/07/26 05:57:00;;;;;;;5.77;3.13;;;18.50;99.90;;;;;;5049358;28;20190;-34
2022/07/26 05:59:26;;;;;;;4.20;2.60;;;18.50;99.90;;;;;;5050021;28;20962;-33
2022/07/26 06:01:55;;;;;;;4.03;2.87;;;18.50;99.90;;;;;;5045610;28;20433;-34
2022/07/26 06:04:22;;;;;;;6.57;3.17;;;18.60;99.90;;;;;;5029979;28;20464;-34
2022/07/26 06:06:48;;;;;;;4.97;2.63;;;18.60;99.90;;;;;;5039761;28;20489;-33
2022/07/26 06:09:14;;;;;;;7.73;3.53;;;18.60;99.90;;;;;;5038358;28;20489;-33
2022/07/26 06:11:39;;;;;;;10.17;3.23;;;18.60;99.90;;;;;;5043525;28;20443;-33
2022/07/26 06:14:05;;;;;;;6.47;3.27;;;18.60;99.90;;;;;;5049254;28;20189;-34
2022/07/26 06:16:31;;;;;;;7.37;2.87;;;18.60;99.90;;;;;;5049346;28;20228;-34
2022/07/26 06:18:56;;;;;;;8.57;3.30;;;18.70;99.90;;;;;;5048029;28;20563;-33
2022/07/26 06:21:22;;;;;;;7.00;3.03;;;18.70;99.90;;;;;;5058380;28;20177;-35
2022/07/26 06:23:50;;;;;;;6.93;3.80;;;18.80;99.90;;;;;;5030031;28;20183;-34
2022/07/26 06:26:16;;;;;;;7.73;3.63;;;18.80;99.90;;;;;;5029891;28;20436;-34
2022/07/26 06:28:42;;;;;;;6.40;3.17;;;18.90;99.90;;;;;;5029213;28;20457;-34
2022/07/26 06:31:09;;;;;;;8.93;3.67;;;18.80;99.90;;;;;;5029645;28;20508;-34
2022/07/26 06:33:35;;;;;;;4.97;3.10;;;18.90;99.90;;;;;;5028522;28;20516;-34
2022/07/26 06:36:01;;;;;;;8.23;3.90;;;18.90;99.90;;;;;;5029645;28;20417;-34
2022/07/26 06:38:27;;;;;;;8.07;4.73;;;19.00;99.90;;;;;;5035521;28;20428;-33
2022/07/26 06:40:53;;;;;;;7.47;4.10;;;19.10;99.90;;;;;;5037666;28;20213;-34
2022/07/26 06:43:19;;;;;;;10.10;5.60;;;19.10;99.90;;;;;;5037923;28;20864;-34
2022/07/26 06:45:45;;;;;;;10.30;5.27;;;19.20;99.90;;;;;;5051262;28;20453;-34
2022/07/26 06:48:11;;;;;;;8.97;5.10;;;19.20;99.90;;;;;;5033037;28;20461;-34
2022/07/26 06:50:37;;;;;;;8.47;5.33;;;19.20;99.90;;;;;;5033282;28;20186;-34
2022/07/26 06:53:03;;;;;;;10.80;6.33;;;19.30;99.90;;;;;;5033519;28;20174;-34
2022/07/26 06:55:28;;;;;;;12.70;7.07;;;19.30;99.90;;;;;;5035845;28;20420;-34
2022/07/26 06:57:54;;;;;;;7.63;6.53;;;19.30;99.90;;;;;;5041367;28;20190;-34
2022/07/26 07:00:20;;;;;;;11.50;7.03;;;19.40;99.90;;;;;;5041682;28;20187;-34
2022/07/26 07:02:45;;;;;;;10.87;6.23;;;19.40;99.90;;;;;;5036030;28;20622;-34
2022/07/26 07:05:11;;;;;;;11.87;7.40;;;19.50;99.90;;;;;;5046872;28;20212;-34
2022/07/26 07:07:37;;;;;;;9.93;6.97;;;19.60;99.90;;;;;;5051003;28;20182;-34
2022/07/26 07:10:04;;;;;;;9.70;6.83;;;19.60;99.90;;;;;;5039829;28;20425;-34
2022/07/26 07:12:30;;;;;;;9.50;6.03;;;19.70;99.90;;;;;;5053000;28;20178;-34
2022/07/26 07:14:55;;;;;;;13.73;8.27;;;19.70;99.90;;;;;;5052945;28;20479;-34
2022/07/26 07:17:21;;;;;;;13.73;7.80;;;19.90;99.90;;;;;;5049220;28;20256;-34
2022/07/26 07:19:47;;;;;;;9.60;7.70;;;19.90;99.90;;;;;;5040881;28;20189;-34
2022/07/26 07:22:13;;;;;;;10.20;7.80;;;20.00;99.90;;;;;;5043883;28;20178;-34
2022/07/26 07:24:40;;;;;;;10.13;7.17;;;20.00;99.90;;;;;;5047179;28;20497;-34
2022/07/26 07:27:06;;;;;;;13.23;8.40;;;20.00;99.90;;;;;;5032249;28;21069;-34
2022/07/26 07:29:32;;;;;;;16.17;8.10;;;20.00;99.90;;;;;;5032446;28;20464;-34
2022/07/26 07:31:58;;;;;;;13.70;7.50;;;20.00;99.90;;;;;;5032952;28;20426;-34
2022/07/26 07:34:24;;;;;;;12.83;8.17;;;19.90;99.90;;;;;;5032560;28;20421;-34
2022/07/26 07:36:50;;;;;;;10.60;6.80;;;19.90;99.90;;;;;;5032152;28;20312;-34
2022/07/26 07:39:16;;;;;;;10.80;7.03;;;20.00;99.90;;;;;;5040908;28;20275;-34
2022/07/26 07:41:46;;;;;;;9.90;7.37;;;20.00;99.90;;;;;;5043186;28;20490;-34
2022/07/26 07:44:12;;;;;;;13.93;8.90;;;20.00;99.90;;;;;;5031221;28;20429;-34
2022/07/26 07:46:38;;;;;;;10.97;8.30;;;20.20;99.90;;;;;;5032493;28;20431;-34
2022/07/26 07:49:05;;;;;;;10.67;9.50;;;20.30;99.90;;;;;;5047092;28;20507;-34
2022/07/26 07:51:32;;;;;;;11.67;9.20;;;20.50;99.90;;;;;;5051849;28;20830;-34
2022/07/26 07:53:58;;;;;;;12.37;8.07;;;20.60;99.90;;;;;;5051884;28;20427;-34
2022/07/26 07:56:24;;;;;;;11.43;8.27;;;20.70;99.90;;;;;;5051184;28;20427;-34
2022/07/26 07:58:50;;;;;;;13.00;7.77;;;20.70;99.90;;;;;;5051391;28;20416;-34
2022/07/26 08:01:15;;;;;;;12.70;8.53;;;20.70;99.90;;;;;;5052296;28;20427;-34
2022/07/26 08:03:41;;;;;;;9.70;8.70;;;20.80;99.90;;;;;;5052043;28;20858;-34
2022/07/26 08:06:08;;;;;;;15.73;10.70;;;20.80;99.90;;;;;;5052142;28;20802;-34
2022/07/26 08:08:34;;;;;;;11.27;9.03;;;20.80;99.90;;;;;;5048477;28;20591;-34
2022/07/26 08:11:01;;;;;;;11.40;9.07;;;20.90;99.90;;;;;;5041145;28;20458;-34
2022/07/26 08:13:26;;;;;;;12.47;9.57;;;20.90;99.90;;;;;;5051697;28;20416;-34
2022/07/26 08:15:53;;;;;;;15.93;11.33;;;21.00;99.90;;;;;;5051991;28;20470;-34
2022/07/26 08:18:20;;;;;;;15.60;11.90;;;21.00;99.90;;;;;;5050456;28;20195;-34
2022/07/26 08:20:46;;;;;;;15.17;10.20;;;20.90;99.90;;;;;;5057084;28;20412;-34
2022/07/26 08:23:12;;;;;;;13.27;11.57;;;20.90;99.90;;;;;;5039927;28;20479;-34
2022/07/26 08:25:38;;;;;;;14.00;12.37;;;21.00;99.90;;;;;;5031916;28;20190;-34
2022/07/26 08:28:04;;;;;;;15.70;11.03;;;21.00;99.90;;;;;;5031001;28;20232;-34
2022/07/26 08:30:31;;;;;;;11.93;10.30;;;21.10;99.90;;;;;;5031899;28;20229;-34
2022/07/26 08:32:56;;;;;;;11.03;9.90;;;21.20;99.90;;;;;;5031539;28;20763;-34
2022/07/26 08:35:22;;;;;;;13.10;11.80;;;21.30;99.90;;;;;;5031873;28;20452;-34
2022/07/26 08:37:48;;;;;;;15.33;11.23;;;21.40;99.90;;;;;;5031001;28;20202;-34
2022/07/26 08:40:14;;;;;;;10.93;9.87;;;21.40;99.90;;;;;;5031682;28;20178;-34
2022/07/26 08:42:47;;;;;;;12.00;9.53;;;21.50;99.90;;;;;;5031337;28;20269;-34
2022/07/26 08:45:19;;;;;;;13.13;10.27;;;21.60;99.90;;;;;;5031508;28;20190;-34
2022/07/26 08:47:45;;;;;;;9.97;9.00;;;21.70;99.90;;;;;;5030746;28;20484;-34
2022/07/26 08:50:10;;;;;;;10.23;9.00;;;21.70;99.90;;;;;;5031344;28;20516;-34
2022/07/26 08:52:40;;;;;;;9.30;8.50;;;21.70;99.90;;;;;;5031337;28;20240;-34
2022/07/26 08:55:06;;;;;;;9.87;8.80;;;21.70;99.90;;;;;;5031205;28;20669;-34
2022/07/26 08:57:32;;;;;;;11.17;10.03;;;21.60;99.90;;;;;;5030544;28;20950;-34
2022/07/26 09:00:13;;;;;;;10.27;9.27;;;21.40;99.90;;;;;;5031337;28;20429;-34
2022/07/26 09:02:43;;;;;;;9.63;8.83;;;21.30;99.90;;;;;;5038131;28;20177;-34
2022/07/26 09:05:09;;;;;;;9.80;8.80;;;21.30;99.90;;;;;;5044693;28;20970;-34
2022/07/26 09:07:35;;;;;;;9.00;8.17;;;21.30;99.90;;;;;;5047773;28;20404;-35
2022/07/26 09:10:13;;;;;;;9.30;8.40;;;21.30;99.90;;;;;;5036543;28;20417;-34
2022/07/26 09:12:40;;;;;;;10.23;8.63;;;21.30;99.90;;;;;;5050812;28;20424;-34
2022/07/26 09:15:17;;;;;;;8.50;7.70;;;21.30;99.90;;;;;;5049476;28;20420;-34
2022/07/26 09:17:45;;;;;;;8.17;7.37;;;21.30;99.90;;;;;;5050001;28;20448;-34
2022/07/26 09:20:26;;;;;;;9.90;7.90;;;21.20;99.90;;;;;;5049651;28;20504;-34
2022/07/26 09:23:02;;;;;;;7.60;6.90;;;21.20;99.90;;;;;;5043975;28;20417;-34
2022/07/26 09:25:36;;;;;;;8.47;7.10;;;21.20;99.90;;;;;;5038026;28;20420;-34
2022/07/26 09:28:03;;;;;;;8.30;7.50;;;21.30;99.90;;;;;;5049657;28;20460;-34
2022/07/26 09:30:30;;;;;;;8.00;7.00;;;21.20;99.90;;;;;;5048949;28;20427;-34
2022/07/26 09:33:03;;;;;;;18.67;7.23;;;21.20;99.90;;;;;;5050283;28;20420;-34
2022/07/26 09:35:31;;;;;;;6.67;5.97;;;21.30;99.90;;;;;;5050499;28;20424;-34
2022/07/26 09:38:12;;;;;;;8.43;6.30;;;21.40;99.90;;;;;;5049567;28;20527;-34
2022/07/26 09:40:42;;;;;;;6.70;5.50;;;21.50;99.90;;;;;;5049364;28;20428;-34
2022/07/26 09:43:08;;;;;;;6.70;6.10;;;21.60;99.90;;;;;;5050210;28;20479;-34
2022/07/26 09:45:35;;;;;;;7.23;6.47;;;21.70;99.90;;;;;;5048922;28;20452;-34
2022/07/26 09:48:02;;;;;;;8.77;6.40;;;21.70;99.90;;;;;;5049459;28;20206;-34
2022/07/26 09:50:31;;;;;;;9.27;5.87;;;21.60;99.90;;;;;;5050301;28;20473;-34
2022/07/26 09:52:58;;;;;;;8.67;6.50;;;21.50;99.90;;;;;;5048949;28;20451;-34
2022/07/26 09:55:24;;;;;;;7.03;5.50;;;21.40;99.90;;;;;;5049869;28;20417;-34
2022/07/26 09:57:50;;;;;;;6.90;5.43;;;21.30;99.90;;;;;;5046328;28;20482;-34
2022/07/26 10:00:16;;;;;;;6.87;5.50;;;21.20;99.90;;;;;;5044321;28;20228;-34
2022/07/26 10:02:42;;;;;;;9.27;6.23;;;21.10;99.90;;;;;;5030025;28;20428;-34
2022/07/26 10:05:08;;;;;;;9.40;6.07;;;21.00;99.90;;;;;;5029856;28;20433;-34
2022/07/26 10:07:34;;;;;;;7.07;5.03;;;21.00;99.90;;;;;;5032524;28;20178;-34
2022/07/26 10:10:05;;;;;;;6.60;6.00;;;21.00;99.90;;;;;;5049026;28;20193;-34
2022/07/26 10:12:32;;;;;;;7.33;6.67;;;21.00;99.90;;;;;;5030075;28;20409;-34
2022/07/26 10:14:58;;;;;;;7.80;7.00;;;21.30;99.90;;;;;;5028668;28;20413;-34
2022/07/26 10:17:29;;;;;;;7.57;6.87;;;21.60;99.90;;;;;;5029124;28;20455;-34
2022/07/26 10:20:10;;;;;;;9.90;7.90;;;21.80;99.90;;;;;;5027755;28;20573;-34
2022/07/26 10:22:49;;;;;;;8.90;8.10;;;21.90;99.90;;;;;;5029387;28;20431;-34
2022/07/26 10:25:18;;;;;;;9.10;8.20;;;22.00;99.90;;;;;;5029563;28;20919;-34
2022/07/26 10:27:46;;;;;;;8.67;7.87;;;22.00;99.90;;;;;;5028686;28;20924;-34
2022/07/26 10:30:21;;;;;;;11.40;8.70;;;22.00;99.90;;;;;;5029734;28;20784;-34
2022/07/26 10:32:50;;;;;;;9.53;8.60;;;22.10;99.90;;;;;;5029440;28;20428;-34
2022/07/26 10:35:43;;;;;;;9.30;8.53;;;22.10;99.90;;;;;;5030106;28;20857;-34
2022/07/26 10:38:21;;;;;;;8.77;7.97;;;22.10;99.90;;;;;;5029017;28;20451;-35
2022/07/26 10:41:07;;;;;;;9.33;8.43;;;22.10;99.90;;;;;;5029755;28;20511;-34
2022/07/26 10:43:33;;;;;;;9.03;7.10;;;22.10;99.90;;;;;;5029629;28;20440;-34
2022/07/26 10:46:17;;;;;;;8.10;7.50;;;22.10;99.90;;;;;;5029771;28;20517;-34
2022/07/26 10:48:56;;;;;;;8.07;6.00;;;21.90;99.90;;;;;;5028885;28;20491;-34
2022/07/26 10:51:28;;;;;;;5.67;5.03;;;21.80;99.90;;;;;;5035550;28;20487;-34
2022/07/26 10:54:11;;;;;;;5.27;4.40;;;21.70;99.90;;;;;;5049318;28;20421;-34
2022/07/26 10:56:37;;;;;;;6.17;4.50;;;21.50;99.90;;;;;;5049000;28;20434;-34
2022/07/26 10:59:04;;;;;;;5.77;5.23;;;21.40;99.90;;;;;;5031583;28;20470;-34
2022/07/26 11:01:35;;;;;;;6.47;5.83;;;21.30;99.90;;;;;;5048137;28;20412;-34
2022/07/26 11:04:01;;;;;;;5.20;4.80;;;21.20;99.90;;;;;;5047924;28;20955;-34
2022/07/26 11:06:29;;;;;;;4.83;4.50;;;21.10;99.90;;;;;;5049319;28;20436;-34
2022/07/26 11:08:55;;;;;;;5.93;5.00;;;21.10;99.90;;;;;;5043907;28;20511;-34
2022/07/26 11:11:32;;;;;;;5.60;5.30;;;21.10;99.90;;;;;;5029800;28;20761;-34
2022/07/26 11:14:24;;;;;;;5.60;5.10;;;21.10;99.90;;;;;;5029425;28;20523;-34
2022/07/26 11:16:50;;;;;;;6.27;4.90;;;21.20;99.90;;;;;;5028376;28;20483;-34
2022/07/26 11:19:23;;;;;;;5.27;4.80;;;21.20;99.90;;;;;;5028524;28;20433;-34
2022/07/26 11:22:00;;;;;;;7.30;5.57;;;21.20;99.90;;;;;;5048823;28;20553;-34
2022/07/26 11:24:26;;;;;;;7.57;6.87;;;21.20;99.90;;;;;;5029393;28;20816;-34
2022/07/26 11:26:53;;;;;;;6.20;5.67;;;21.20;99.90;;;;;;5028441;28;20425;-34
2022/07/26 11:29:27;;;;;;;5.63;5.20;;;21.20;99.90;;;;;;5029288;28;20547;-34
2022/07/26 11:31:52;;;;;;;4.37;4.07;;;21.30;99.90;;;;;;5037395;28;20463;-34
2022/07/26 11:34:21;;;;;;;4.00;3.70;;;21.30;99.90;;;;;;5052855;28;20828;-34
2022/07/26 11:36:48;;;;;;;4.00;3.70;;;21.40;99.90;;;;;;5052124;28;20239;-34
2022/07/26 11:39:31;;;;;;;5.17;3.17;;;21.40;99.90;;;;;;5052665;28;20493;-34
2022/07/26 11:42:04;;;;;;;2.60;2.40;;;21.40;99.90;;;;;;5052909;28;20957;-34
2022/07/26 11:44:31;;;;;;;2.80;2.03;;;21.50;99.90;;;;;;5052565;28;20426;-34
2022/07/26 11:46:57;;;;;;;2.07;1.80;;;21.50;99.90;;;;;;5051940;28;20427;-34
2022/07/26 11:49:28;;;;;;;2.40;2.20;;;21.60;99.90;;;;;;5051927;28;20555;-34
2022/07/26 11:52:02;;;;;;;2.80;2.60;;;21.70;99.90;;;;;;5052549;28;20185;-34
2022/07/26 11:54:47;;;;;;;4.10;3.20;;;21.90;99.90;;;;;;5052262;28;20427;-34
2022/07/26 11:57:14;;;;;;;4.20;3.80;;;22.20;99.90;;;;;;5051778;28;20420;-34
2022/07/26 11:59:42;;;;;;;4.20;3.90;;;22.40;99.90;;;;;;5052146;28;20424;-34
2022/07/26 12:02:08;;;;;;;3.17;2.87;;;22.40;99.90;;;;;;5052310;28;20436;-34
2022/07/26 12:04:39;;;;;;;3.40;2.83;;;22.40;99.90;;;;;;5051833;28;20465;-34
2022/07/26 12:07:13;;;;;;;3.33;3.00;;;22.40;99.90;;;;;;5051461;28;20436;-34
2022/07/26 12:09:42;;;;;;;2.10;1.90;;;22.40;99.90;;;;;;5032105;28;20464;-34
2022/07/26 12:12:23;;;;;;;2.10;2.00;;;22.40;99.90;;;;;;5050284;28;20432;-35
2022/07/26 12:15:09;;;;;;;3.70;2.50;;;22.50;99.90;;;;;;5051915;28;20495;-34
2022/07/26 12:17:35;;;;;;;3.80;1.90;;;22.50;99.90;;;;;;5051261;28;20425;-34
2022/07/26 12:20:15;;;;;;;1.60;1.50;;;22.50;99.90;;;;;;5050864;28;20424;-34
2022/07/26 12:22:56;;;;;;;0.77;0.77;;;22.50;99.90;;;;;;5032083;28;20217;-34
2022/07/26 12:25:28;;;;;;;0.80;0.80;;;22.60;99.90;;;;;;5031766;28;20624;-34
2022/07/26 12:27:54;;;;;;;0.80;0.60;;;22.70;99.90;;;;;;5031116;28;20421;-34
2022/07/26 12:30:20;;;;;;;1.17;0.70;;;22.80;99.90;;;;;;5031766;28;20428;-34
2022/07/26 12:32:47;;;;;;;0.60;0.57;;;22.90;99.90;;;;;;5031765;28;20201;-34
2022/07/26 12:35:15;;;;;;;0.77;0.70;;;23.10;99.90;;;;;;5031760;28;20475;-35
2022/07/26 12:37:44;;;;;;;1.43;0.53;;;23.30;99.90;;;;;;5031045;28;20433;-34
2022/07/26 12:40:11;;;;;;;0.70;0.50;;;23.30;99.90;;;;;;5033751;28;20432;-34
2022/07/26 12:42:42;;;;;;;1.53;0.80;;;23.30;99.90;;;;;;5038730;28;21084;-34
2022/07/26 12:45:11;;;;;;;1.77;0.70;;;23.40;99.90;;;;;;5040304;28;20786;-34
2022/07/26 12:47:41;;;;;;;1.07;0.70;;;23.50;99.90;;;;;;5040595;28;20452;-34